Terminal Aerodrome Forecast
Issued by NWS Sioux Falls, SD

Home | Current Version | Previous Version | Text Only | Print | Product List | Glossary Off
Versions: 1 2 3 4 5 6 7 8 9 10 11 12

000
FTUS43 KFSD 192320
TAFFSD
TAF
KFSD 192320Z 2000/2024 17010KT P6SM SKC
     FM200300 17009KT P6SM SKC WS010/19040KT
     FM201400 18015G25KT P6SM FEW250
     FM201700 18020G31KT P6SM FEW250
     FM202100 17021G31KT P6SM BKN040=

USA.gov is the U.S. government's official web portal to all federal, state and local government web resources and services.